Time;durP1;ratioP1;P1;durP2;ratioP2;P2;SDS_P1;SDS_P2;PMS_P1;PMS_P2;Temp;Humidity;BMP_temperature;BMP_pressure;BME280_temperature;BME280_humidity;BME280_pressure;Samples;Min_cycle;Max_cycle;Signal;HPM_P1;HPM_P2
2023/05/25 00:00:26;;;;;;;;;;;;;;;-144.99;100.00;52399.19;5033449;28;19952;-69
2023/05/25 00:02:54;;;;;;;;;;;;;;;-144.99;100.00;52386.94;5043067;28;20087;-70
2023/05/25 00:05:26;;;;;;;;;;;;;;;-144.99;100.00;52423.63;5039294;28;20024;-69
2023/05/25 00:07:53;;;;;;;;;;;;;;;-144.99;100.00;52395.09;5040535;28;20396;-70
2023/05/25 00:10:20;;;;;;;;;;;;;;;-144.99;100.00;52411.41;5032105;28;20020;-70
2023/05/25 00:12:47;;;;;;;;;;;;;;;-144.99;100.00;52395.09;5036524;28;19936;-69
2023/05/25 00:15:13;;;;;;;;;;;;;;;-144.99;100.00;52407.31;5037063;28;19937;-69
2023/05/25 00:17:40;;;;;;;;;;;;;;;-144.99;100.00;52407.31;5021762;28;20091;-70
2023/05/25 00:20:09;;;;;;;;;;;;;;;-144.99;100.00;52362.50;5032897;28;19925;-70
2023/05/25 00:22:36;;;;;;;;;;;;;;;-144.99;100.00;52382.88;5035039;28;20305;-69
2023/05/25 00:25:03;;;;;;;;;;;;;;;-144.99;100.00;52386.94;5038852;28;20358;-68
2023/05/25 00:27:30;;;;;;;;;;;;;;;-144.99;100.00;52407.31;5035092;28;19971;-71
2023/05/25 00:29:56;;;;;;;;;;;;;;;-144.99;100.00;52378.78;5035646;28;19932;-70
2023/05/25 00:32:23;;;;;;;;;;;;;;;-144.99;100.00;52380.84;5035481;28;19929;-71
2023/05/25 00:34:50;;;;;;;;;;;;;;;-144.99;100.00;52407.31;5038479;28;19936;-69
2023/05/25 00:37:18;;;;;;;;;;;;;;;-144.99;100.00;52417.53;5028007;28;20027;-70
2023/05/25 00:39:44;;;;;;;;;;;;;;;-144.99;100.00;52358.41;5031800;28;19931;-71
2023/05/25 00:42:11;;;;;;;;;;;;;;;-144.99;100.00;52413.44;5034229;28;19928;-70
2023/05/25 00:44:38;;;;;;;;;;;;;;;-144.99;100.00;52403.25;5038580;28;20068;-70
2023/05/25 00:47:05;;;;;;;;;;;;;;;-144.99;100.00;52378.78;5025792;28;20393;-71
2023/05/25 00:49:34;;;;;;;;;;;;;;;-144.99;100.00;52382.88;5027791;28;19925;-69
2023/05/25 00:52:01;;;;;;;;;;;;;;;-144.99;100.00;52386.94;5032273;28;19925;-69
2023/05/25 00:54:32;;;;;;;;;;;;;;;-144.99;100.00;52411.41;5044395;28;19944;-68
2023/05/25 00:57:02;;;;;;;;;;;;;;;-144.99;100.00;52388.97;5029966;28;19929;-70
2023/05/25 00:59:35;;;;;;;;;;;;;;;-144.99;100.00;52395.09;5027813;28;19936;-68
2023/05/25 01:02:04;;;;;;;;;;;;;;;-144.99;100.00;52401.22;5032602;28;19980;-68
2023/05/25 01:04:32;;;;;;;;;;;;;;;-144.99;100.00;52417.53;5037880;28;20278;-69
2023/05/25 01:07:00;;;;;;;;;;;;;;;-144.99;100.00;52413.44;5037389;28;19935;-69
2023/05/25 01:09:27;;;;;;;;;;;;;;;-144.99;100.00;52399.19;5022826;28;19961;-66
2023/05/25 01:11:56;;;;;;;;;;;;;;;-144.99;100.00;52403.25;5033865;28;20216;-68
2023/05/25 01:14:23;;;;;;;;;;;;;;;-144.99;100.00;52391.03;5033121;28;20386;-66
2023/05/25 01:16:51;;;;;;;;;;;;;;;-144.99;100.00;52386.94;5027179;28;19933;-67
2023/05/25 01:19:18;;;;;;;;;;;;;;;-144.99;100.00;52391.03;5033402;28;19924;-65
2023/05/25 01:21:50;;;;;;;;;;;;;;;-144.99;100.00;52350.25;5029121;28;19979;-66
2023/05/25 01:24:21;;;;;;;;;;;;;;;-144.99;100.00;52407.31;5030084;28;20322;-65
2023/05/25 01:26:50;;;;;;;;;;;;;;;-144.99;100.00;52415.47;5031260;28;19926;-65
2023/05/25 01:29:18;;;;;;;;;;;;;;;-144.99;100.00;52362.50;5029223;28;20407;-66
2023/05/25 01:31:45;;;;;;;;;;;;;;;-144.99;100.00;52399.19;5030781;28;19936;-68
2023/05/25 01:34:13;;;;;;;;;;;;;;;-144.99;100.00;52407.31;5029728;28;19925;-67
2023/05/25 01:36:40;;;;;;;;;;;;;;;-144.99;100.00;52391.03;5019234;28;20327;-70
2023/05/25 01:39:09;;;;;;;;;;;;;;;-144.99;100.00;52386.94;5039973;28;19972;-70
2023/05/25 01:41:36;;;;;;;;;;;;;;;-144.99;100.00;52376.75;5035689;28;19925;-69
2023/05/25 01:44:03;;;;;;;;;;;;;;;-144.99;100.00;52378.78;5028972;28;19931;-70
2023/05/25 01:46:34;;;;;;;;;;;;;;;-144.99;100.00;52382.88;5029724;28;19929;-69
2023/05/25 01:49:02;;;;;;;;;;;;;;;-144.99;100.00;52366.56;5031256;28;19932;-71
2023/05/25 01:51:32;;;;;;;;;;;;;;;-144.99;100.00;52386.94;5029127;28;20020;-69
2023/05/25 01:54:00;;;;;;;;;;;;;;;-144.99;100.00;52378.78;5032228;28;19929;-67
2023/05/25 01:56:30;;;;;;;;;;;;;;;-144.99;100.00;52356.38;5026096;28;19933;-69
2023/05/25 01:58:58;;;;;;;;;;;;;;;-144.99;100.00;52407.31;5022800;28;20032;-69
2023/05/25 02:01:26;;;;;;;;;;;;;;;-144.99;100.00;52419.56;5031206;28;20108;-70
2023/05/25 02:06:33;;;;;;;;;;;;;;;-144.99;100.00;52403.25;5046469;28;19924;-71
2023/05/25 02:09:00;;;;;;;;;;;;;;;-144.99;100.00;52391.03;5035795;28;19940;-71
2023/05/25 02:11:26;;;;;;;;;;;;;;;-144.99;100.00;52382.88;5042947;28;20030;-71
2023/05/25 02:13:55;;;;;;;;;;;;;;;-144.99;100.00;52444.03;5031243;28;19929;-70
2023/05/25 02:16:21;;;;;;;;;;;;;;;-144.99;100.00;52378.78;5043342;28;19932;-73
2023/05/25 02:18:49;;;;;;;;;;;;;;;-144.99;100.00;52423.63;5046431;28;19935;-71
2023/05/25 02:21:16;;;;;;;;;;;;;;;-144.99;100.00;52419.56;5046904;28;20280;-70
2023/05/25 02:23:43;;;;;;;;;;;;;;;-144.99;100.00;52413.44;5047310;28;19925;-70
2023/05/25 02:26:10;;;;;;;;;;;;;;;-144.99;100.00;52427.72;5043173;28;19924;-70
2023/05/25 02:28:37;;;;;;;;;;;;;;;-144.99;100.00;52439.94;5046832;28;19925;-72
2023/05/25 02:31:05;;;;;;;;;;;;;;;-144.99;100.00;52431.78;5048099;28;20015;-72
2023/05/25 02:33:31;;;;;;;;;;;;;;;-144.99;100.00;52431.78;5048366;28;19929;-71
2023/05/25 02:35:58;;;;;;;;;;;;;;;-144.99;100.00;52427.72;5049357;28;20020;-72
2023/05/25 02:38:25;;;;;;;;;;;;;;;-144.99;100.00;52370.63;5045027;28;20061;-72
2023/05/25 02:40:52;;;;;;;;;;;;;;;-144.99;100.00;52419.56;5053903;28;20241;-72
2023/05/25 02:43:18;;;;;;;;;;;;;;;-144.99;100.00;52407.31;5070410;28;19928;-71
2023/05/25 02:45:45;;;;;;;;;;;;;;;-144.99;100.00;52407.31;5069136;28;19936;-71
2023/05/25 02:48:13;;;;;;;;;;;;;;;-144.99;100.00;52417.53;5066381;28;19925;-73
2023/05/25 02:50:40;;;;;;;;;;;;;;;-144.99;100.00;52374.72;5067236;28;19925;-72
2023/05/25 02:53:07;;;;;;;;;;;;;;;-144.99;100.00;52407.31;5066806;28;19947;-71
2023/05/25 02:55:33;;;;;;;;;;;;;;;-144.99;100.00;52419.56;5065424;28;20185;-72
2023/05/25 02:58:00;;;;;;;;;;;;;;;-144.99;100.00;52391.03;5050600;28;19929;-71
2023/05/25 03:00:27;;;;;;;;;;;;;;;-144.99;100.00;52395.09;5046487;28;20391;-70
2023/05/25 03:02:54;;;;;;;;;;;;;;;-144.99;100.00;52354.34;5052802;28;20185;-72
2023/05/25 03:05:22;;;;;;;;;;;;;;;-144.99;100.00;52364.53;5063157;28;19936;-73
2023/05/25 03:07:49;;;;;;;;;;;;;;;-144.99;100.00;52429.75;5059675;28;20376;-74
2023/05/25 03:10:15;;;;;;;;;;;;;;;-144.99;100.00;52407.31;5057702;28;19960;-72
2023/05/25 03:12:42;;;;;;;;;;;;;;;-144.99;100.00;52374.72;5049300;28;19928;-72
2023/05/25 03:15:12;;;;;;;;;;;;;;;-144.99;100.00;52378.78;5037561;28;20131;-73
2023/05/25 03:17:39;;;;;;;;;;;;;;;-144.99;100.00;52397.13;5044415;28;19941;-72
2023/05/25 03:20:07;;;;;;;;;;;;;;;-144.99;100.00;52350.25;5047270;28;19968;-73
2023/05/25 03:22:37;;;;;;;;;;;;;;;-144.99;100.00;52395.09;5047530;28;19931;-72
2023/05/25 03:25:04;;;;;;;;;;;;;;;-144.99;100.00;52395.09;5046690;28;19972;-72
2023/05/25 03:27:31;;;;;;;;;;;;;;;-144.99;100.00;52391.03;5070448;28;19928;-76
2023/05/25 03:29:57;;;;;;;;;;;;;;;-144.99;100.00;52415.47;5074439;28;20292;-74
2023/05/25 03:32:24;;;;;;;;;;;;;;;-144.99;100.00;52378.78;5073284;28;19937;-75
2023/05/25 03:34:51;;;;;;;;;;;;;;;-144.99;100.00;52413.44;5074919;28;19996;-74
2023/05/25 03:37:17;;;;;;;;;;;;;;;-144.99;100.00;52382.88;5069314;28;20031;-71
2023/05/25 03:39:46;;;;;;;;;;;;;;;-144.99;100.00;52419.56;5072301;28;19925;-73
2023/05/25 03:42:12;;;;;;;;;;;;;;;-144.99;100.00;52391.03;5073585;28;19944;-75
2023/05/25 03:44:39;;;;;;;;;;;;;;;-144.99;100.00;52399.19;5072862;28;19944;-74
2023/05/25 03:47:06;;;;;;;;;;;;;;;-144.99;100.00;52395.09;5069427;28;19912;-73
2023/05/25 03:49:32;;;;;;;;;;;;;;;-144.99;100.00;52423.63;5072914;28;20404;-74
2023/05/25 03:52:00;;;;;;;;;;;;;;;-144.99;100.00;52397.13;5073817;28;19975;-72
2023/05/25 03:54:26;;;;;;;;;;;;;;;-144.99;100.00;52382.88;5068826;28;19940;-73
2023/05/25 03:56:55;;;;;;;;;;;;;;;-144.99;100.00;52378.78;5070607;28;19924;-71
2023/05/25 03:59:22;;;;;;;;;;;;;;;-144.99;100.00;52386.94;5065923;28;19947;-72
2023/05/25 04:01:49;;;;;;;;;;;;;;;-144.99;100.00;52382.88;5070405;28;19936;-73
2023/05/25 04:04:15;;;;;;;;;;;;;;;-144.99;100.00;52342.09;5072735;28;19925;-72
2023/05/25 04:06:44;;;;;;;;;;;;;;;-144.99;100.00;52366.56;5070307;28;19944;-72
2023/05/25 04:09:11;;;;;;;;;;;;;;;-144.99;100.00;52382.88;5068616;28;19943;-73
2023/05/25 04:11:38;;;;;;;;;;;;;;;-144.99;100.00;52364.53;5066666;28;19928;-74
2023/05/25 04:14:06;;;;;;;;;;;;;;;-144.99;100.00;52393.06;5057659;28;19929;-73
2023/05/25 04:16:33;;;;;;;;;;;;;;;-144.99;100.00;52378.78;5071827;28;19974;-72
2023/05/25 04:18:59;;;;;;;;;;;;;;;-144.99;100.00;52370.63;5070765;28;19929;-73
2023/05/25 04:21:26;;;;;;;;;;;;;;;-144.99;100.00;52395.09;5067189;28;19932;-72
2023/05/25 04:23:53;;;;;;;;;;;;;;;-144.99;100.00;52435.88;5070805;28;19923;-73
2023/05/25 04:26:19;;;;;;;;;;;;;;;-144.99;100.00;52378.78;5070095;28;19925;-72
2023/05/25 04:28:47;;;;;;;;;;;;;;;-144.99;100.00;52384.91;5064775;28;20161;-76
2023/05/25 04:31:15;;;;;;;;;;;;;;;-144.99;100.00;52384.91;5070387;28;20279;-74
2023/05/25 04:33:41;;;;;;;;;;;;;;;-144.99;100.00;52360.44;5070849;28;19935;-74
2023/05/25 04:36:09;;;;;;;;;;;;;;;-144.99;100.00;52366.56;5071294;28;19960;-74
2023/05/25 04:38:36;;;;;;;;;;;;;;;-144.99;100.00;52380.84;5065314;28;19929;-75
2023/05/25 04:41:04;;;;;;;;;;;;;;;-144.99;100.00;52338.03;5070118;28;19925;-74
2023/05/25 04:43:31;;;;;;;;;;;;;;;-144.99;100.00;52382.88;5068019;28;20079;-75
2023/05/25 04:45:58;;;;;;;;;;;;;;;-144.99;100.00;52415.47;5069471;28;20306;-73
2023/05/25 04:48:28;;;;;;;;;;;;;;;-144.99;100.00;52364.53;5065122;28;19986;-73
2023/05/25 04:50:56;;;;;;;;;;;;;;;-144.99;100.00;52350.25;5070256;28;19956;-74
2023/05/25 04:53:22;;;;;;;;;;;;;;;-144.99;100.00;52427.72;5067158;28;19936;-75
2023/05/25 04:55:50;;;;;;;;;;;;;;;-144.99;100.00;52333.94;5068951;28;19925;-75
2023/05/25 04:58:17;;;;;;;;;;;;;;;-144.99;100.00;52333.94;5067015;28;19925;-73
2023/05/25 05:00:44;;;;;;;;;;;;;;;-144.99;100.00;52358.41;5069545;28;19959;-74
2023/05/25 05:03:10;;;;;;;;;;;;;;;-144.99;100.00;52358.41;5068527;28;19929;-73
2023/05/25 05:05:38;;;;;;;;;;;;;;;-144.99;100.00;52366.56;5067651;28;19936;-74
2023/05/25 05:08:05;;;;;;;;;;;;;;;-144.99;100.00;52370.63;5064644;28;19929;-73
2023/05/25 05:10:32;;;;;;;;;;;;;;;-144.99;100.00;52370.63;5062876;28;20032;-74
2023/05/25 05:12:59;;;;;;;;;;;;;;;-144.99;100.00;52354.34;5054189;28;19925;-77
2023/05/25 05:15:25;;;;;;;;;;;;;;;-144.99;100.00;52362.50;5052036;28;20163;-75
2023/05/25 05:17:52;;;;;;;;;;;;;;;-144.99;100.00;52342.09;5048541;28;19925;-74
2023/05/25 05:20:19;;;;;;;;;;;;;;;-144.99;100.00;52358.41;5049121;28;19956;-75
2023/05/25 05:22:47;;;;;;;;;;;;;;;-144.99;100.00;52276.88;5044133;28;19961;-75
2023/05/25 05:25:14;;;;;;;;;;;;;;;-144.99;100.00;52354.34;5051258;28;19931;-74
2023/05/25 05:27:41;;;;;;;;;;;;;;;-144.99;100.00;52362.50;5046468;28;19928;-73
2023/05/25 05:30:08;;;;;;;;;;;;;;;-144.99;100.00;52333.94;4698364;28;9999820;-73
2023/05/25 05:32:35;;;;;;;;;;;;;;;-144.99;100.00;52374.72;5036602;28;19938;-73
2023/05/25 05:35:01;;;;;;;;;;;;;;;-144.99;100.00;52350.25;5047211;28;19932;-73
2023/05/25 05:37:28;;;;;;;;;;;;;;;-144.99;100.00;52350.25;5041507;28;19936;-74
2023/05/25 05:39:56;;;;;;;;;;;;;;;-144.99;100.00;52342.09;5047879;28;19931;-73
2023/05/25 05:42:23;;;;;;;;;;;;;;;-144.99;100.00;52297.25;5048671;28;20581;-73
2023/05/25 05:44:50;;;;;;;;;;;;;;;-144.99;100.00;52346.19;5054267;28;20014;-77
2023/05/25 05:47:17;;;;;;;;;;;;;;;-144.99;100.00;52342.09;5047557;28;20322;-74
2023/05/25 05:49:44;;;;;;;;;;;;;;;-144.99;99.96;52346.19;5047077;28;19932;-72
2023/05/25 05:52:10;;;;;;;;;;;;;;;-144.99;99.22;52342.09;5039422;28;19995;-74
2023/05/25 05:54:37;;;;;;;;;;;;;;;-144.99;98.89;52342.09;5036040;28;20185;-75
2023/05/25 05:57:05;;;;;;;;;;;;;;;-144.99;98.19;52293.19;5047468;28;19976;-77
2023/05/25 05:59:32;;;;;;;;;;;;;;;-144.99;97.45;52329.88;5064581;28;20238;-78
2023/05/25 06:01:59;;;;;;;;;;;;;;;-144.99;97.15;52346.19;5060248;28;20398;-77
2023/05/25 06:04:27;;;;;;;;;;;;;;;-144.99;97.26;52305.41;5060295;28;19928;-75
2023/05/25 06:06:54;;;;;;;;;;;;;;;-144.99;95.35;52311.53;5061445;28;19947;-74
2023/05/25 06:09:21;;;;;;;;;;;;;;;-144.99;94.25;52309.50;5046412;28;19932;-75
2023/05/25 06:11:47;;;;;;;;;;;;;;;-144.99;92.53;52323.75;5040917;28;19975;-76
2023/05/25 06:14:16;;;;;;;;;;;;;;;-144.99;91.28;52342.09;5044538;28;19935;-75
2023/05/25 06:16:43;;;;;;;;;;;;;;;-144.99;90.86;52305.41;5045068;28;19929;-76
2023/05/25 06:19:10;;;;;;;;;;;;;;;-144.99;90.53;52325.81;5046454;28;19936;-75
2023/05/25 06:21:37;;;;;;;;;;;;;;;-144.99;89.97;52321.72;5056641;28;19936;-77
2023/05/25 06:24:04;;;;;;;;;;;;;;;-144.99;89.43;52360.44;5054749;28;19913;-75
2023/05/25 06:26:31;;;;;;;;;;;;;;;-144.99;88.40;52321.72;5056821;28;19972;-76
2023/05/25 06:28:57;;;;;;;;;;;;;;;-144.99;86.92;52307.47;5060072;28;19935;-75
2023/05/25 06:31:26;;;;;;;;;;;;;;;-144.99;86.58;52342.09;5061579;28;20264;-76
2023/05/25 06:33:52;;;;;;;;;;;;;;;-144.99;85.94;52321.72;5059783;28;19928;-73
2023/05/25 06:36:20;;;;;;;;;;;;;;;-144.99;86.02;52293.19;5057968;28;19996;-75
2023/05/25 06:38:47;;;;;;;;;;;;;;;-144.99;86.23;52295.22;5059120;28;20110;-77
2023/05/25 06:41:14;;;;;;;;;;;;;;;-144.99;85.23;52309.50;5050094;28;19929;-76
2023/05/25 06:43:41;;;;;;;;;;;;;;;-144.99;84.02;52362.50;5058888;28;19978;-75
2023/05/25 06:46:08;;;;;;;;;;;;;;;-144.99;83.62;52317.66;5060225;28;19929;-74
2023/05/25 06:48:36;;;;;;;;;;;;;;;-144.99;82.81;52327.84;5061708;28;19948;-75
2023/05/25 06:51:03;;;;;;;;;;;;;;;-144.99;82.90;52287.06;5058402;28;19924;-76
2023/05/25 06:53:31;;;;;;;;;;;;;;;-144.99;82.92;52313.56;5058737;28;19925;-74
2023/05/25 06:55:58;;;;;;;;;;;;;;;-144.99;82.06;52325.81;5057251;28;19992;-74
2023/05/25 06:58:24;;;;;;;;;;;;;;;-144.99;81.44;52291.16;4704981;28;9999795;-76
2023/05/25 07:00:51;;;;;;;;;;;;;;;-144.99;80.55;52313.56;5062600;28;19929;-76
2023/05/25 07:03:18;;;;;;;;;;;;;;;-144.99;79.64;52329.88;5056097;28;19925;-75
2023/05/25 07:05:49;;;;;;;;;;;;;;;-144.99;79.65;52309.50;5068163;28;19931;-77
2023/05/25 07:08:16;;;;;;;;;;;;;;;-144.99;78.92;52299.31;5067407;28;19913;-76
2023/05/25 07:10:42;;;;;;;;;;;;;;;-144.99;77.99;52301.34;5042394;28;20327;-73
2023/05/25 07:13:10;;;;;;;;;;;;;;;-144.99;77.62;52338.03;5046035;28;19935;-74
2023/05/25 07:15:36;;;;;;;;;;;;;;;-144.99;76.73;52321.72;5049894;28;20395;-73
2023/05/25 07:18:03;;;;;;;;;;;;;;;-144.99;76.01;52289.13;5050066;28;20369;-75
2023/05/25 07:20:30;;;;;;;;;;;;;;;-144.99;76.24;52270.78;5045953;28;19965;-73
2023/05/25 07:22:58;;;;;;;;;;;;;;;-144.99;75.45;52268.72;5043569;28;20411;-75
2023/05/25 07:25:25;;;;;;;;;;;;;;;-144.99;75.10;52276.88;5048707;28;20300;-73
2023/05/25 07:27:53;;;;;;;;;;;;;;;-144.99;74.27;52313.56;5048751;28;19961;-73
2023/05/25 07:30:20;;;;;;;;;;;;;;;-144.99;74.88;52289.13;5049746;28;19954;-73
2023/05/25 07:32:47;;;;;;;;;;;;;;;-144.99;74.48;52293.19;5047294;28;19935;-74
2023/05/25 07:35:14;;;;;;;;;;;;;;;-144.99;74.72;52264.66;5047190;28;19928;-74
2023/05/25 07:37:41;;;;;;;;;;;;;;;-144.99;73.79;52260.56;5048929;28;19933;-73
2023/05/25 07:40:10;;;;;;;;;;;;;;;-144.99;72.73;52289.13;5048721;28;20012;-75
2023/05/25 07:42:36;;;;;;;;;;;;;;;-144.99;72.40;52278.91;5049608;28;19924;-74
2023/05/25 07:45:03;;;;;;;;;;;;;;;-144.99;72.44;52297.25;5046479;28;19929;-76
2023/05/25 07:47:30;;;;;;;;;;;;;;;-144.99;71.99;52240.19;5049675;28;19932;-73
2023/05/25 07:49:57;;;;;;;;;;;;;;;-144.99;71.90;52256.50;5049527;28;20395;-74
2023/05/25 07:52:23;;;;;;;;;;;;;;;-144.99;71.14;52260.56;5046351;28;19929;-75
2023/05/25 07:54:50;;;;;;;;;;;;;;;-144.99;70.59;52260.56;5047489;28;19928;-75
2023/05/25 07:57:18;;;;;;;;;;;;;;;-144.99;70.79;52276.88;5040926;28;19979;-75
2023/05/25 07:59:45;;;;;;;;;;;;;;;-144.99;70.07;52256.50;5046964;28;19929;-75
2023/05/25 08:02:11;;;;;;;;;;;;;;;-144.99;70.37;52252.44;5045735;28;20114;-75
2023/05/25 08:04:38;;;;;;;;;;;;;;;-144.99;70.94;52285.03;5057489;28;19935;-74
2023/05/25 08:07:05;;;;;;;;;;;;;;;-144.99;70.38;52299.31;5083474;22;19967;-70
2023/05/25 08:09:32;;;;;;;;;;;;;;;-144.99;70.33;52295.22;5086281;28;19954;-69
2023/05/25 08:11:59;;;;;;;;;;;;;;;-144.99;70.44;52293.19;5085171;28;20074;-70
2023/05/25 08:14:27;;;;;;;;;;;;;;;-144.99;70.99;52276.88;5073816;28;19928;-71
2023/05/25 08:16:53;;;;;;;;;;;;;;;-144.99;70.49;52268.72;5083301;28;19927;-70
2023/05/25 08:19:20;;;;;;;;;;;;;;;-144.99;71.58;52297.25;5074846;28;19928;-71
2023/05/25 08:21:47;;;;;;;;;;;;;;;-144.99;70.09;52276.88;5077140;28;19947;-71
2023/05/25 08:24:13;;;;;;;;;;;;;;;-144.99;69.89;52225.94;5071542;28;19928;-71
2023/05/25 08:26:40;;;;;;;;;;;;;;;-144.99;69.92;52285.03;5080706;28;19928;-71
2023/05/25 08:29:07;;;;;;;;;;;;;;;-144.99;69.66;52276.88;5084234;28;19928;-71
2023/05/25 08:31:36;;;;;;;;;;;;;;;-144.99;70.01;52244.28;5079511;28;19928;-71
2023/05/25 08:34:02;;;;;;;;;;;;;;;-144.99;68.74;52272.81;5080942;28;20027;-72
2023/05/25 08:36:29;;;;;;;;;;;;;;;-144.99;68.69;52256.50;5085745;28;19935;-70
2023/05/25 08:38:56;;;;;;;;;;;;;;;-144.99;68.29;52276.88;5081260;28;20035;-71
2023/05/25 08:41:22;;;;;;;;;;;;;;;-144.99;67.89;52291.16;5082041;28;19929;-71
2023/05/25 08:43:49;;;;;;;;;;;;;;;-144.99;68.29;52250.38;5082454;28;19935;-72
2023/05/25 08:46:22;;;;;;;;;;;;;;;-144.99;68.48;52219.81;5075979;28;19944;-72
2023/05/25 08:48:51;;;;;;;;;;;;;;;-144.99;68.36;52240.19;5081910;28;20317;-72
2023/05/25 08:51:18;;;;;;;;;;;;;;;-144.99;67.98;52266.69;5081208;28;20428;-72
2023/05/25 08:53:46;;;;;;;;;;;;;;;-144.99;67.83;52256.50;5084009;28;19928;-72
2023/05/25 08:56:17;;;;;;;;;;;;;;;-144.99;68.37;52293.19;5084887;28;19938;-72
2023/05/25 08:58:45;;;;;;;;;;;;;;;-144.99;67.75;52329.88;5077570;28;19931;-72
2023/05/25 09:01:15;;;;;;;;;;;;;;;-144.99;67.44;52264.66;5082921;28;19950;-72
2023/05/25 09:03:42;;;;;;;;;;;;;;;-144.99;67.91;52272.81;5078966;28;20670;-72
2023/05/25 09:06:11;;;;;;;;;;;;;;;-144.99;68.43;52307.47;5078265;28;20005;-72
2023/05/25 09:08:38;;;;;;;;;;;;;;;-144.99;68.71;52276.88;5084259;28;20054;-73
2023/05/25 09:11:06;;;;;;;;;;;;;;;-144.99;67.63;52293.19;5080873;28;20055;-72
2023/05/25 09:13:33;;;;;;;;;;;;;;;-144.99;67.86;52236.13;5084351;28;20193;-73
2023/05/25 09:15:59;;;;;;;;;;;;;;;-144.99;68.00;52183.13;5083576;28;19950;-73
2023/05/25 09:18:26;;;;;;;;;;;;;;;-144.99;66.88;52285.03;5084511;28;19924;-72
2023/05/25 09:20:53;;;;;;;;;;;;;;;-144.99;66.71;52256.50;5078127;28;19932;-72
2023/05/25 09:23:21;;;;;;;;;;;;;;;-144.99;66.26;52248.34;5076193;28;20385;-72
2023/05/25 09:25:49;;;;;;;;;;;;;;;-144.99;65.91;52266.69;5082594;28;20052;-73
2023/05/25 09:28:18;;;;;;;;;;;;;;;-144.99;65.61;52236.13;5077273;28;19963;-73
2023/05/25 09:30:45;;;;;;;;;;;;;;;-144.99;65.91;52236.13;5083955;28;20369;-73
2023/05/25 09:33:12;;;;;;;;;;;;;;;-144.99;65.33;52236.13;5081482;28;20327;-73
2023/05/25 09:35:39;;;;;;;;;;;;;;;-144.99;64.61;52195.34;5071075;28;20041;-72
2023/05/25 09:38:06;;;;;;;;;;;;;;;-144.99;64.95;52244.28;5082265;28;19927;-73
2023/05/25 09:40:35;;;;;;;;;;;;;;;-144.99;65.04;52207.59;5078645;28;19928;-74
2023/05/25 09:43:02;;;;;;;;;;;;;;;-144.99;64.21;52213.69;5075531;28;19928;-74
2023/05/25 09:45:29;;;;;;;;;;;;;;;-144.99;63.58;52207.59;5075705;28;19929;-73
2023/05/25 09:47:56;;;;;;;;;;;;;;;-144.99;63.31;52187.19;5074179;28;19924;-73
2023/05/25 09:50:22;;;;;;;;;;;;;;;-144.99;63.86;52199.44;5086017;28;19928;-73
2023/05/25 09:52:49;;;;;;;;;;;;;;;-144.99;63.55;52193.31;5076952;28;19940;-74
2023/05/25 09:55:16;;;;;;;;;;;;;;;-144.99;63.70;52201.47;5077042;28;19925;-76
2023/05/25 09:57:45;;;;;;;;;;;;;;;-144.99;64.16;52211.66;5080119;28;20394;-75
2023/05/25 10:00:12;;;;;;;;;;;;;;;-144.99;64.16;52162.75;5082229;28;19985;-76
2023/05/25 10:02:39;;;;;;;;;;;;;;;-144.99;63.69;52187.19;5082289;28;20631;-76
2023/05/25 10:05:07;;;;;;;;;;;;;;;-144.99;62.65;52195.34;5083195;28;19955;-74
2023/05/25 10:07:34;;;;;;;;;;;;;;;-144.99;63.55;52215.75;5077128;28;19950;-74
2023/05/25 10:10:04;;;;;;;;;;;;;;;-144.99;63.45;52195.34;5067380;28;19940;-75
2023/05/25 10:12:32;;;;;;;;;;;;;;;-144.99;63.29;52166.81;5076028;28;20007;-74
2023/05/25 10:15:02;;;;;;;;;;;;;;;-144.99;63.04;52174.97;5083486;28;20030;-75
2023/05/25 10:17:30;;;;;;;;;;;;;;;-144.99;62.01;52156.63;5076068;28;19928;-76
2023/05/25 10:19:57;;;;;;;;;;;;;;;-144.99;62.44;52195.34;5077739;28;19931;-76
2023/05/25 10:22:27;;;;;;;;;;;;;;;-144.99;61.86;52193.31;5082235;28;19932;-76
2023/05/25 10:24:55;;;;;;;;;;;;;;;-144.99;62.88;52197.41;5080636;28;19932;-75
2023/05/25 10:27:23;;;;;;;;;;;;;;;-144.99;63.10;52197.41;5073896;28;20089;-75
2023/05/25 10:29:51;;;;;;;;;;;;;;;-144.99;63.91;52203.50;5080876;28;20019;-75
2023/05/25 10:32:19;;;;;;;;;;;;;;;-144.99;63.30;52187.19;5076321;28;19931;-73
2023/05/25 10:34:46;;;;;;;;;;;;;;;-144.99;63.13;52211.66;5077173;28;19934;-74
2023/05/25 10:37:14;;;;;;;;;;;;;;;-144.99;63.01;52121.97;5074910;28;19928;-74
2023/05/25 10:39:41;;;;;;;;;;;;;;;-144.99;62.71;52276.88;5081660;28;20022;-74
2023/05/25 10:42:08;;;;;;;;;;;;;;;-144.99;62.42;52236.13;5081406;28;20475;-74
2023/05/25 10:44:35;;;;;;;;;;;;;;;-144.99;62.04;52195.34;5078747;28;19932;-75
2023/05/25 10:47:01;;;;;;;;;;;;;;;-144.99;62.35;52142.38;5078954;28;19934;-73
2023/05/25 10:49:33;;;;;;;;;;;;;;;-144.99;62.78;52211.66;5074543;28;20320;-74
2023/05/25 10:52:00;;;;;;;;;;;;;;;-144.99;62.08;52132.19;5077404;28;19928;-76
2023/05/25 10:54:31;;;;;;;;;;;;;;;-144.99;62.18;52126.06;5071145;28;20388;-76
2023/05/25 10:57:10;;;;;;;;;;;;;;;-144.99;61.81;52105.69;5082294;28;20303;-75
2023/05/25 10:59:40;;;;;;;;;;;;;;;-144.99;62.17;52138.28;4721334;28;10000571;-75
2023/05/25 11:02:07;;;;;;;;;;;;;;;-144.99;60.44;52146.44;5081511;28;19943;-75
2023/05/25 11:04:36;;;;;;;;;;;;;;;-144.99;60.98;52158.66;5080557;28;20031;-74
2023/05/25 11:07:12;;;;;;;;;;;;;;;-144.99;60.55;52093.44;5083496;28;19971;-76
2023/05/25 11:09:44;;;;;;;;;;;;;;;-144.99;60.10;52154.59;5079959;28;19932;-75
2023/05/25 11:12:28;;;;;;;;;;;;;;;-144.99;59.89;52105.69;5076338;28;19940;-75
2023/05/25 11:15:09;;;;;;;;;;;;;;;-144.99;60.21;52132.19;5079870;28;20406;-75
2023/05/25 11:17:44;;;;;;;;;;;;;;;-144.99;60.43;52124.03;5077598;28;19932;-75
2023/05/25 11:20:21;;;;;;;;;;;;;;;-144.99;60.31;52087.34;5083942;28;19981;-75
2023/05/25 11:22:50;;;;;;;;;;;;;;;-144.99;60.48;52146.44;5077379;28;19935;-75
2023/05/25 11:25:31;;;;;;;;;;;;;;;-144.99;60.69;52109.75;5079433;28;19928;-75
2023/05/25 11:28:03;;;;;;;;;;;;;;;-144.99;60.84;52117.91;5066081;28;20439;-75
2023/05/25 11:30:30;;;;;;;;;;;;;;;-144.99;59.92;52097.53;5072856;28;20027;-76
2023/05/25 11:32:58;;;;;;;;;;;;;;;-144.99;58.93;52117.91;5075190;28;19939;-69
2023/05/25 11:35:27;;;;;;;;;;;;;;;-144.99;59.37;52158.66;5081834;28;20022;-68
2023/05/25 11:37:54;;;;;;;;;;;;;;;-144.99;59.92;52121.97;5075332;28;19924;-72
2023/05/25 11:40:22;;;;;;;;;;;;;;;-144.99;59.71;52146.44;5077451;28;19935;-72
2023/05/25 11:42:49;;;;;;;;;;;;;;;-144.99;59.66;52134.22;5084784;28;19928;-72
2023/05/25 11:45:16;;;;;;;;;;;;;;;-144.99;59.83;52117.91;5079533;28;20017;-72
2023/05/25 11:47:43;;;;;;;;;;;;;;;-144.99;59.27;52134.22;5082445;28;20401;-70
2023/05/25 11:50:15;;;;;;;;;;;;;;;-144.99;58.96;52107.72;5085065;28;20031;-73
2023/05/25 11:52:43;;;;;;;;;;;;;;;-144.99;58.88;52138.28;5078264;28;19928;-71
2023/05/25 11:55:11;;;;;;;;;;;;;;;-144.99;59.38;52183.13;5084059;28;20182;-71
2023/05/25 11:57:39;;;;;;;;;;;;;;;-144.99;59.07;52156.63;5080213;28;19963;-71
2023/05/25 12:00:06;;;;;;;;;;;;;;;-144.99;58.95;52121.97;5082305;28;20589;-71
2023/05/25 12:02:37;;;;;;;;;;;;;;;-144.99;59.00;52101.59;5084502;28;20314;-72
2023/05/25 12:05:05;;;;;;;;;;;;;;;-144.99;59.38;52140.31;5086093;28;20018;-71
2023/05/25 12:07:32;;;;;;;;;;;;;;;-144.99;59.46;52101.59;5082324;28;20347;-71
2023/05/25 12:10:07;;;;;;;;;;;;;;;-144.99;59.82;52117.91;5083457;28;19928;-72
2023/05/25 12:12:40;;;;;;;;;;;;;;;-144.99;59.63;52081.22;5084906;28;19935;-71
2023/05/25 12:15:08;;;;;;;;;;;;;;;-144.99;59.18;52166.81;5085652;28;19928;-71
2023/05/25 12:17:35;;;;;;;;;;;;;;;-144.99;59.06;52126.06;5085644;28;20387;-71
2023/05/25 12:20:03;;;;;;;;;;;;;;;-144.99;58.29;52126.06;5085865;28;20100;-72
2023/05/25 12:22:30;;;;;;;;;;;;;;;-144.99;58.72;52117.91;5081672;28;19932;-71
2023/05/25 12:24:57;;;;;;;;;;;;;;;-144.99;59.58;52093.44;5076996;28;20302;-70
2023/05/25 12:27:25;;;;;;;;;;;;;;;-144.99;59.11;52109.75;5074996;28;20004;-71